createdAt,value
2023-05-17T00:02:25.951Z,1.10
2023-05-17T00:06:30.114Z,1.10
2023-05-17T00:10:33.157Z,1.37
2023-05-17T00:14:35.951Z,1.27
2023-05-17T00:18:39.150Z,1.30
2023-05-17T00:22:45.643Z,1.00
2023-05-17T00:26:48.565Z,1.00
2023-05-17T00:30:51.275Z,1.10
2023-05-17T00:34:54.118Z,1.00
2023-05-17T00:38:58.158Z,1.23
2023-05-17T00:43:00.827Z,1.10
2023-05-17T00:47:03.829Z,1.10
2023-05-17T00:51:06.647Z,1.20
2023-05-17T00:55:10.940Z,0.90
2023-05-17T00:59:14.704Z,1.23
2023-05-17T01:03:17.850Z,1.20
2023-05-17T01:07:20.668Z,0.93
2023-05-17T01:11:32.166Z,1.20
2023-05-17T01:15:36.616Z,1.00
2023-05-17T01:19:53.485Z,1.23
2023-05-17T01:23:58.425Z,0.80
2023-05-17T01:28:03.558Z,1.00
2023-05-17T01:32:08.018Z,1.23
2023-05-17T01:36:10.782Z,1.03
2023-05-17T01:40:13.732Z,1.13
2023-05-17T01:44:25.768Z,0.80
2023-05-17T01:48:33.245Z,1.00
2023-05-17T01:52:40.102Z,1.00
2023-05-17T01:56:45.271Z,1.20
2023-05-17T02:00:50.728Z,1.20
2023-05-17T02:04:53.524Z,1.03
2023-05-17T02:08:58.622Z,1.00
2023-05-17T02:13:01.375Z,0.90
2023-05-17T02:17:06.341Z,1.10
2023-05-17T02:21:09.097Z,1.00
2023-05-17T02:25:12.033Z,0.97
2023-05-17T02:29:14.834Z,1.37
2023-05-17T02:33:19.476Z,1.27
2023-05-17T02:37:22.202Z,1.20
2023-05-17T02:41:25.041Z,1.20
2023-05-17T02:45:28.301Z,1.20
2023-05-17T02:49:32.837Z,1.20
2023-05-17T02:53:35.542Z,1.00
2023-05-17T02:57:54.578Z,1.07
2023-05-17T03:01:57.538Z,1.20
2023-05-17T03:06:02.821Z,1.30
2023-05-17T03:10:07.291Z,1.23
2023-05-17T03:14:10.277Z,1.30
2023-05-17T03:18:13.075Z,1.23
2023-05-17T03:22:17.475Z,1.20
2023-05-17T03:26:20.800Z,1.60
2023-05-17T03:30:23.821Z,1.80
2023-05-17T03:34:26.644Z,1.20
2023-05-17T03:38:31.045Z,1.40
2023-05-17T03:42:34.018Z,1.43
2023-05-17T03:46:36.736Z,1.30
2023-05-17T03:50:41.006Z,1.60
2023-05-17T03:54:48.081Z,1.50
2023-05-17T03:58:51.020Z,1.73
2023-05-17T04:02:54.044Z,1.20
2023-05-17T04:06:56.881Z,1.50
2023-05-17T04:11:01.538Z,1.37
2023-05-17T04:15:04.438Z,1.40
2023-05-17T04:19:07.432Z,1.50
2023-05-17T04:33:56.566Z,1.70
2023-05-17T04:37:59.387Z,1.50
2023-05-17T04:42:02.271Z,1.20
2023-05-17T04:46:05.620Z,1.40
2023-05-17T04:50:09.860Z,1.50
2023-05-17T04:54:12.698Z,1.23
2023-05-17T04:58:15.375Z,1.70
2023-05-17T05:02:18.100Z,1.67
2023-05-17T05:06:22.507Z,1.57
2023-05-17T05:10:25.613Z,1.50
2023-05-17T05:14:28.283Z,1.67
2023-05-17T05:18:31.121Z,1.60
2023-05-17T05:22:35.225Z,1.80
2023-05-17T05:26:37.924Z,1.90
2023-05-17T05:30:40.962Z,1.77
2023-05-17T05:34:44.051Z,1.97
2023-05-17T05:38:48.170Z,2.00
2023-05-17T05:42:51.435Z,2.03
2023-05-17T05:46:54.198Z,2.27
2023-05-17T05:56:20.741Z,1.93
2023-05-17T06:00:23.950Z,1.90
2023-05-17T06:04:33.097Z,2.10
2023-05-17T06:08:45.720Z,1.97
2023-05-17T06:12:49.905Z,2.20
2023-05-17T06:16:53.034Z,1.80
2023-05-17T06:20:55.882Z,2.20
2023-05-17T06:24:58.651Z,2.10
2023-05-17T06:29:03.808Z,2.33
2023-05-17T06:33:06.715Z,2.47
2023-05-17T06:37:09.646Z,2.13
2023-05-17T06:41:12.385Z,2.60
2023-05-17T06:50:38.283Z,2.27
2023-05-17T06:54:40.970Z,2.83
2023-05-17T06:58:44.005Z,2.70
2023-05-17T07:02:46.940Z,2.53
2023-05-17T07:06:53.873Z,2.43
2023-05-17T07:10:56.670Z,2.57
2023-05-17T07:20:21.441Z,2.77
2023-05-17T07:29:42.176Z,3.10
2023-05-17T07:33:45.096Z,3.07
2023-05-17T07:37:48.066Z,3.00
2023-05-17T07:41:50.889Z,2.90
2023-05-17T07:45:55.768Z,2.87
2023-05-17T07:49:58.723Z,3.00
2023-05-17T07:54:03.258Z,2.80
2023-05-17T07:58:06.018Z,2.87
2023-05-17T08:02:10.576Z,3.13
2023-05-17T08:06:13.599Z,3.10
2023-05-17T08:10:16.388Z,3.27
2023-05-17T08:14:19.363Z,3.20
2023-05-17T08:18:23.631Z,3.10
2023-05-17T08:22:29.058Z,3.17
2023-05-17T08:26:34.667Z,3.67
2023-05-17T08:30:37.426Z,3.30
2023-05-17T08:34:44.624Z,3.40
2023-05-17T08:38:47.329Z,3.27
2023-05-17T08:42:50.352Z,3.63
2023-05-17T08:46:54.653Z,3.57
2023-05-17T08:50:59.906Z,2.43
2023-05-17T08:55:06.049Z,3.00
2023-05-17T08:59:10.663Z,2.97
2023-05-17T09:03:17.549Z,3.03
2023-05-17T09:07:21.740Z,3.10
2023-05-17T09:11:29.251Z,2.93
2023-05-17T09:15:34.258Z,2.67
2023-05-17T09:19:44.643Z,2.50
2023-05-17T09:24:01.750Z,2.70
2023-05-17T09:28:09.175Z,2.53
2023-05-17T09:32:16.695Z,2.53
2023-05-17T09:36:21.296Z,3.00
2023-05-17T09:40:26.320Z,2.17
2023-05-17T09:44:29.153Z,2.60
2023-05-17T09:48:32.160Z,2.40
2023-05-17T09:52:37.522Z,2.40
2023-05-17T09:56:42.169Z,2.50
2023-05-17T10:00:47.253Z,2.90
2023-05-17T10:04:51.465Z,2.40
2023-05-17T10:08:57.489Z,2.50
2023-05-17T10:13:02.045Z,2.77
2023-05-17T10:17:04.863Z,2.70
2023-05-17T10:21:08.494Z,2.50
2023-05-17T10:25:11.962Z,2.70
2023-05-17T10:29:16.972Z,2.60
2023-05-17T10:33:19.909Z,2.60
2023-05-17T10:37:22.982Z,2.67
2023-05-17T10:41:28.739Z,2.30
2023-05-17T10:45:33.103Z,2.60
2023-05-17T10:49:39.086Z,2.53
2023-05-17T10:54:05.929Z,2.33
2023-05-17T10:58:17.496Z,2.60
2023-05-17T11:02:27.437Z,2.77
2023-05-17T11:06:38.330Z,2.47
2023-05-17T11:11:11.290Z,2.67
2023-05-17T11:15:15.094Z,2.70
2023-05-17T11:19:19.373Z,2.87
2023-05-17T11:23:23.365Z,2.60
2023-05-17T11:27:28.842Z,2.60
2023-05-17T11:31:32.387Z,2.70
2023-05-17T11:35:37.581Z,2.97
2023-05-17T11:40:04.985Z,2.60
2023-05-17T11:44:07.828Z,2.80
2023-05-17T11:48:11.520Z,3.10
2023-05-17T11:52:17.695Z,2.93
2023-05-17T11:56:26.511Z,3.20
2023-05-17T12:00:35.180Z,3.20
2023-05-17T12:04:39.229Z,3.10
2023-05-17T12:08:44.636Z,3.30
2023-05-17T12:12:47.532Z,2.87
2023-05-17T12:16:53.244Z,2.90
2023-05-17T12:20:57.133Z,3.20
2023-05-17T12:25:01.525Z,2.83
2023-05-17T12:29:04.997Z,3.23
2023-05-17T12:33:08.362Z,3.40
2023-05-17T12:37:13.296Z,3.30
2023-05-17T12:41:17.709Z,3.10
2023-05-17T12:45:23.267Z,3.17
2023-05-17T12:49:26.292Z,2.70
2023-05-17T12:53:36.452Z,3.23
2023-05-17T12:57:41.130Z,2.70
2023-05-17T13:01:45.425Z,2.90
2023-05-17T13:05:59.403Z,2.90
2023-05-17T13:10:02.503Z,3.47
2023-05-17T13:14:09.304Z,3.27
2023-05-17T13:18:16.012Z,2.77
2023-05-17T13:22:18.921Z,3.07
2023-05-17T13:26:22.224Z,3.00
2023-05-17T13:30:26.423Z,2.93
2023-05-17T13:34:29.271Z,3.03
2023-05-17T13:38:32.315Z,2.97
2023-05-17T13:42:35.408Z,3.10
2023-05-17T13:46:40.017Z,3.10
2023-05-17T13:50:43.119Z,2.73
2023-05-17T13:54:45.964Z,2.70
2023-05-17T13:58:49.490Z,3.13
2023-05-17T14:02:53.947Z,2.37
2023-05-17T14:06:57.170Z,3.20
2023-05-17T14:11:00.041Z,2.70
2023-05-17T14:15:03.310Z,2.83
2023-05-17T14:19:07.518Z,2.83
2023-05-17T14:23:10.564Z,2.77
2023-05-17T14:27:13.433Z,3.00
2023-05-17T14:31:16.660Z,2.87
2023-05-17T14:35:20.934Z,2.57
2023-05-17T14:39:24.182Z,2.60
2023-05-17T14:43:27.063Z,2.50
2023-05-17T14:47:29.882Z,2.50
2023-05-17T14:51:34.050Z,2.83
2023-05-17T14:55:36.839Z,2.77
2023-05-17T14:59:40.242Z,2.47
2023-05-17T15:03:43.320Z,3.30
2023-05-17T15:07:48.559Z,2.53
2023-05-17T15:11:51.884Z,2.93
2023-05-17T15:15:55.198Z,2.57
2023-05-17T15:19:58.818Z,2.73
2023-05-17T15:24:03.234Z,2.47
2023-05-17T15:28:08.791Z,2.50
2023-05-17T15:32:11.666Z,2.33
2023-05-17T15:36:16.279Z,2.33
2023-05-17T15:40:21.657Z,2.70
2023-05-17T15:44:24.531Z,2.77
2023-05-17T15:48:29.157Z,2.27
2023-05-17T15:52:32.108Z,2.73
2023-05-17T15:56:38.206Z,2.60
2023-05-17T16:00:41.260Z,2.33
2023-05-17T16:04:44.226Z,2.43
2023-05-17T16:08:47.045Z,2.40
2023-05-17T16:12:52.241Z,2.50
2023-05-17T16:16:54.983Z,2.30
2023-05-17T16:21:04.533Z,3.17
2023-05-17T16:25:08.005Z,2.63
2023-05-17T16:29:13.596Z,2.40
2023-05-17T16:33:16.514Z,2.27
2023-05-17T16:37:19.314Z,2.40
2023-05-17T16:41:22.412Z,2.50
2023-05-17T16:45:27.125Z,2.30
2023-05-17T16:49:30.203Z,2.33
2023-05-17T16:53:33.004Z,2.07
2023-05-17T16:57:35.725Z,2.30
2023-05-17T17:01:39.872Z,2.20
2023-05-17T17:05:42.956Z,1.93
2023-05-17T17:09:46.037Z,2.20
2023-05-17T17:13:48.969Z,2.40
2023-05-17T17:17:53.177Z,2.10
2023-05-17T17:21:56.193Z,2.20
2023-05-17T17:25:59.013Z,2.43
2023-05-17T17:30:02.018Z,2.63
2023-05-17T17:34:06.117Z,2.70
2023-05-17T17:38:09.653Z,2.43
2023-05-17T17:42:12.353Z,2.03
2023-05-17T17:46:15.598Z,2.20
2023-05-17T17:50:20.346Z,2.87
2023-05-17T17:54:23.143Z,3.40
2023-05-17T17:58:26.227Z,2.53
2023-05-17T18:02:29.118Z,2.63
2023-05-17T18:06:33.892Z,2.67
2023-05-17T18:10:36.927Z,2.30
2023-05-17T18:14:40.848Z,2.17
2023-05-17T18:18:44.361Z,2.20
2023-05-17T18:22:48.826Z,2.33
2023-05-17T18:26:51.612Z,2.30
2023-05-17T18:30:54.426Z,2.40
2023-05-17T18:34:57.195Z,2.10
2023-05-17T18:39:01.318Z,3.20
2023-05-17T18:43:04.133Z,3.53
2023-05-17T18:47:08.012Z,4.43
2023-05-17T18:51:10.927Z,3.17
2023-05-17T18:55:15.205Z,3.13
2023-05-17T18:59:18.277Z,2.43
2023-05-17T19:03:21.628Z,2.43
2023-05-17T19:07:24.346Z,2.80
2023-05-17T19:11:29.175Z,2.90
2023-05-17T19:15:32.024Z,3.00
2023-05-17T19:19:34.765Z,2.13
2023-05-17T19:23:37.735Z,2.70
2023-05-17T19:27:43.129Z,2.37
2023-05-17T19:31:46.275Z,2.23
2023-05-17T19:35:49.889Z,2.60
2023-05-17T19:39:52.757Z,3.40
2023-05-17T19:43:56.909Z,2.60
2023-05-17T19:48:02.333Z,2.53
2023-05-17T19:52:05.809Z,2.50
2023-05-17T19:56:10.189Z,2.43
2023-05-17T20:00:17.028Z,2.57
2023-05-17T20:04:20.057Z,2.63
2023-05-17T20:08:23.247Z,2.60
2023-05-17T20:12:26.506Z,2.50
2023-05-17T20:16:31.133Z,2.67
2023-05-17T20:20:34.225Z,2.93
2023-05-17T20:24:37.223Z,2.50
2023-05-17T20:28:39.994Z,2.83
2023-05-17T20:32:44.760Z,2.57
2023-05-17T20:36:47.840Z,2.80
2023-05-17T20:40:51.975Z,2.77
2023-05-17T20:44:54.959Z,2.50
2023-05-17T20:49:01.147Z,2.90
2023-05-17T20:53:03.973Z,2.40
2023-05-17T20:57:07.493Z,2.37
2023-05-17T21:01:10.732Z,2.60
2023-05-17T21:05:14.834Z,2.40
2023-05-17T21:09:18.895Z,2.53
2023-05-17T21:13:23.810Z,2.50
2023-05-17T21:17:26.831Z,2.73
2023-05-17T21:21:31.119Z,3.20
2023-05-17T21:25:34.971Z,3.13
2023-05-17T21:29:37.722Z,2.70
2023-05-17T21:33:40.499Z,2.57
2023-05-17T21:37:44.848Z,2.90
2023-05-17T21:41:47.545Z,2.40
2023-05-17T21:45:50.320Z,3.07
2023-05-17T21:49:53.063Z,2.93
2023-05-17T21:53:57.199Z,2.50
2023-05-17T21:58:00.149Z,2.60
2023-05-17T22:02:02.844Z,2.90
2023-05-17T22:06:06.146Z,3.03
2023-05-17T22:10:11.085Z,2.80
2023-05-17T22:14:13.933Z,2.93
2023-05-17T22:18:19.357Z,2.50
2023-05-17T22:22:22.726Z,2.90
2023-05-17T22:26:27.833Z,2.63
2023-05-17T22:30:30.886Z,2.50
2023-05-17T22:34:34.298Z,2.63
2023-05-17T22:38:37.076Z,2.73
2023-05-17T22:42:43.058Z,2.73
2023-05-17T22:46:46.719Z,2.70
2023-05-17T22:50:50.542Z,3.57
2023-05-17T22:54:53.372Z,3.40
2023-05-17T22:58:58.174Z,2.80
2023-05-17T23:03:02.695Z,2.77
2023-05-17T23:07:05.786Z,3.17
2023-05-17T23:11:08.671Z,2.60
2023-05-17T23:15:13.625Z,2.63
2023-05-17T23:19:16.999Z,2.30
2023-05-17T23:23:23.005Z,2.40
2023-05-17T23:27:26.144Z,2.60
2023-05-17T23:31:30.984Z,2.57
2023-05-17T23:35:33.690Z,2.67
2023-05-17T23:39:36.543Z,2.80
2023-05-17T23:43:39.267Z,2.63
2023-05-17T23:47:44.380Z,2.20
2023-05-17T23:51:47.212Z,2.40
2023-05-17T23:55:49.865Z,2.53
2023-05-17T23:59:52.667Z,2.40
